sensor_id;sensor_type;location;lat;lon;timestamp;pressure;altitude;pressure_sealevel;temperature;humidity
60061;BME280;45933;51.336;12.612;2023-04-24T00:01:14;98629.00;;;15.98;57.59
60061;BME280;45933;51.336;12.612;2023-04-24T00:03:40;98622.72;;;16.01;56.87
60061;BME280;45933;51.336;12.612;2023-04-24T00:06:06;98605.41;;;15.97;57.47
60061;BME280;45933;51.336;12.612;2023-04-24T00:08:33;98603.81;;;15.94;57.78
60061;BME280;45933;51.336;12.612;2023-04-24T00:10:59;98600.63;;;15.87;57.42
60061;BME280;45933;51.336;12.612;2023-04-24T00:13:24;98586.00;;;15.82;58.34
60061;BME280;45933;51.336;12.612;2023-04-24T00:15:49;98582.63;;;15.80;58.35
60061;BME280;45933;51.336;12.612;2023-04-24T00:18:15;98575.75;;;15.77;58.34
60061;BME280;45933;51.336;12.612;2023-04-24T00:20:40;98578.28;;;15.79;58.17
60061;BME280;45933;51.336;12.612;2023-04-24T00:23:06;98581.84;;;15.78;58.29
60061;BME280;45933;51.336;12.612;2023-04-24T00:25:31;98586.41;;;15.74;58.23
60061;BME280;45933;51.336;12.612;2023-04-24T00:27:56;98592.69;;;15.72;58.63
60061;BME280;45933;51.336;12.612;2023-04-24T00:30:22;98584.22;;;15.65;59.42
60061;BME280;45933;51.336;12.612;2023-04-24T00:32:47;98570.34;;;15.63;59.17
60061;BME280;45933;51.336;12.612;2023-04-24T00:35:12;98570.34;;;15.63;58.76
60061;BME280;45933;51.336;12.612;2023-04-24T00:37:38;98577.44;;;15.61;58.52
60061;BME280;45933;51.336;12.612;2023-04-24T00:40:03;98582.69;;;15.61;57.60
60061;BME280;45933;51.336;12.612;2023-04-24T00:42:29;98588.16;;;15.56;57.06
60061;BME280;45933;51.336;12.612;2023-04-24T00:44:56;98581.66;;;15.46;57.46
60061;BME280;45933;51.336;12.612;2023-04-24T00:47:21;98581.16;;;15.38;57.46
60061;BME280;45933;51.336;12.612;2023-04-24T00:49:47;98600.34;;;15.40;57.74
60061;BME280;45933;51.336;12.612;2023-04-24T00:52:12;98598.00;;;15.34;57.74
60061;BME280;45933;51.336;12.612;2023-04-24T00:54:43;98601.53;;;15.33;57.93
60061;BME280;45933;51.336;12.612;2023-04-24T00:57:08;98593.03;;;15.28;58.33
60061;BME280;45933;51.336;12.612;2023-04-24T00:59:33;98593.25;;;15.23;58.78
60061;BME280;45933;51.336;12.612;2023-04-24T01:01:59;98590.00;;;15.18;59.13
60061;BME280;45933;51.336;12.612;2023-04-24T01:04:25;98587.47;;;15.16;59.24
60061;BME280;45933;51.336;12.612;2023-04-24T01:06:51;98586.69;;;15.14;59.06
60061;BME280;45933;51.336;12.612;2023-04-24T01:09:17;98592.88;;;15.13;59.68
60061;BME280;45933;51.336;12.612;2023-04-24T01:11:43;98594.06;;;15.06;59.84
60061;BME280;45933;51.336;12.612;2023-04-24T01:14:09;98597.75;;;15.02;59.64
60061;BME280;45933;51.336;12.612;2023-04-24T01:16:34;98590.03;;;14.99;59.82
60061;BME280;45933;51.336;12.612;2023-04-24T01:19:00;98592.78;;;14.96;60.24
60061;BME280;45933;51.336;12.612;2023-04-24T01:21:26;98592.88;;;14.95;59.52
60061;BME280;45933;51.336;12.612;2023-04-24T01:23:55;98593.25;;;14.87;60.30
60061;BME280;45933;51.336;12.612;2023-04-24T01:26:21;98596.09;;;14.82;60.68
60061;BME280;45933;51.336;12.612;2023-04-24T01:28:47;98591.59;;;14.84;59.99
60061;BME280;45933;51.336;12.612;2023-04-24T01:31:14;98596.84;;;14.84;60.08
60061;BME280;45933;51.336;12.612;2023-04-24T01:33:41;98596.34;;;14.76;60.73
60061;BME280;45933;51.336;12.612;2023-04-24T01:36:07;98602.59;;;14.74;60.69
60061;BME280;45933;51.336;12.612;2023-04-24T01:38:34;98601.88;;;14.70;60.98
60061;BME280;45933;51.336;12.612;2023-04-24T01:40:59;98598.06;;;14.77;59.99
60061;BME280;45933;51.336;12.612;2023-04-24T01:43:24;98598.63;;;14.65;60.43
60061;BME280;45933;51.336;12.612;2023-04-24T01:45:50;98588.63;;;14.73;59.59
60061;BME280;45933;51.336;12.612;2023-04-24T01:48:15;98586.09;;;14.72;59.74
60061;BME280;45933;51.336;12.612;2023-04-24T01:50:41;98585.28;;;14.70;59.95
60061;BME280;45933;51.336;12.612;2023-04-24T01:53:06;98585.28;;;14.70;59.68
60061;BME280;45933;51.336;12.612;2023-04-24T01:55:31;98588.84;;;14.69;59.59
60061;BME280;45933;51.336;12.612;2023-04-24T01:57:58;98593.38;;;14.65;59.71
60061;BME280;45933;51.336;12.612;2023-04-24T02:00:25;98592.53;;;14.64;59.41
60061;BME280;45933;51.336;12.612;2023-04-24T02:02:50;98585.50;;;14.65;59.55
60061;BME280;45933;51.336;12.612;2023-04-24T02:05:15;98583.31;;;14.56;60.02
60061;BME280;45933;51.336;12.612;2023-04-24T02:07:41;98586.84;;;14.55;59.92
60061;BME280;45933;51.336;12.612;2023-04-24T02:10:06;98588.47;;;14.57;59.45
60061;BME280;45933;51.336;12.612;2023-04-24T02:12:32;98587.91;;;14.51;59.87
60061;BME280;45933;51.336;12.612;2023-04-24T02:14:57;98591.50;;;14.48;59.86
60061;BME280;45933;51.336;12.612;2023-04-24T02:17:23;98598.44;;;14.49;59.45
60061;BME280;45933;51.336;12.612;2023-04-24T02:19:48;98600.41;;;14.44;59.71
60061;BME280;45933;51.336;12.612;2023-04-24T02:22:13;98590.75;;;14.45;59.24
60061;BME280;45933;51.336;12.612;2023-04-24T02:24:39;98587.00;;;14.31;60.43
60061;BME280;45933;51.336;12.612;2023-04-24T02:27:04;98587.97;;;14.29;60.36
60061;BME280;45933;51.336;12.612;2023-04-24T02:29:30;98594.22;;;14.26;60.34
60061;BME280;45933;51.336;12.612;2023-04-24T02:31:55;98594.63;;;14.17;60.79
60061;BME280;45933;51.336;12.612;2023-04-24T02:34:20;98594.41;;;14.22;60.42
60061;BME280;45933;51.336;12.612;2023-04-24T02:36:46;98594.63;;;14.17;60.37
60061;BME280;45933;51.336;12.612;2023-04-24T02:39:11;98591.34;;;14.12;60.44
60061;BME280;45933;51.336;12.612;2023-04-24T02:41:38;98587.03;;;14.11;60.53
60061;BME280;45933;51.336;12.612;2023-04-24T02:44:03;98583.09;;;14.01;60.75
60061;BME280;45933;51.336;12.612;2023-04-24T02:46:29;98578.44;;;14.07;60.49
60061;BME280;45933;51.336;12.612;2023-04-24T02:48:54;98582.91;;;14.05;60.44
60061;BME280;45933;51.336;12.612;2023-04-24T02:51:20;98582.81;;;14.07;60.32
60061;BME280;45933;51.336;12.612;2023-04-24T02:53:45;98573.44;;;14.03;60.58
60061;BME280;45933;51.336;12.612;2023-04-24T02:56:10;98571.50;;;14.06;60.15
60061;BME280;45933;51.336;12.612;2023-04-24T02:58:38;98565.88;;;13.95;60.93
60061;BME280;45933;51.336;12.612;2023-04-24T03:01:04;98563.91;;;14.00;60.47
60061;BME280;45933;51.336;12.612;2023-04-24T03:03:30;98581.31;;;14.01;60.26
60061;BME280;45933;51.336;12.612;2023-04-24T03:05:55;98581.59;;;13.95;60.44
60061;BME280;45933;51.336;12.612;2023-04-24T03:08:20;98576.34;;;13.95;60.69
60061;BME280;45933;51.336;12.612;2023-04-24T03:10:46;98580.63;;;13.98;60.18
60061;BME280;45933;51.336;12.612;2023-04-24T03:13:11;98585.34;;;13.90;60.64
60061;BME280;45933;51.336;12.612;2023-04-24T03:15:36;98591.69;;;13.84;61.21
60061;BME280;45933;51.336;12.612;2023-04-24T03:18:02;98590.84;;;13.83;60.55
60061;BME280;45933;51.336;12.612;2023-04-24T03:20:27;98586.44;;;13.84;60.79
60061;BME280;45933;51.336;12.612;2023-04-24T03:22:53;98589.84;;;13.86;60.29
60061;BME280;45933;51.336;12.612;2023-04-24T03:25:18;98579.06;;;13.73;60.97
60061;BME280;45933;51.336;12.612;2023-04-24T03:27:43;98573.69;;;13.76;60.79
60061;BME280;45933;51.336;12.612;2023-04-24T03:30:10;98576.25;;;13.78;60.23
60061;BME280;45933;51.336;12.612;2023-04-24T03:32:35;98578.97;;;13.75;60.61
60061;BME280;45933;51.336;12.612;2023-04-24T03:35:00;98592.22;;;13.72;60.72
60061;BME280;45933;51.336;12.612;2023-04-24T03:37:26;98587.81;;;13.72;60.69
60061;BME280;45933;51.336;12.612;2023-04-24T03:39:51;98598.31;;;13.72;60.59
60061;BME280;45933;51.336;12.612;2023-04-24T03:42:17;98597.50;;;13.70;60.98
60061;BME280;45933;51.336;12.612;2023-04-24T03:44:42;98595.78;;;13.69;60.63
60061;BME280;45933;51.336;12.612;2023-04-24T03:47:07;98593.31;;;13.66;60.55
60061;BME280;45933;51.336;12.612;2023-04-24T03:49:33;98592.53;;;13.64;60.55
60061;BME280;45933;51.336;12.612;2023-04-24T03:51:58;98601.19;;;13.66;60.32
60061;BME280;45933;51.336;12.612;2023-04-24T03:54:24;98599.41;;;13.67;60.33
60061;BME280;45933;51.336;12.612;2023-04-24T03:56:49;98603.13;;;13.61;60.41
60061;BME280;45933;51.336;12.612;2023-04-24T03:59:14;98600.56;;;13.59;60.64
60061;BME280;45933;51.336;12.612;2023-04-24T04:01:40;98607.38;;;13.64;60.22
60061;BME280;45933;51.336;12.612;2023-04-24T04:04:08;98610.31;;;13.56;61.00
60061;BME280;45933;51.336;12.612;2023-04-24T04:06:33;98612.22;;;13.52;60.91
60061;BME280;45933;51.336;12.612;2023-04-24T04:08:59;98607.09;;;13.49;60.48
60061;BME280;45933;51.336;12.612;2023-04-24T04:11:25;98605.78;;;13.59;60.33
60061;BME280;45933;51.336;12.612;2023-04-24T04:13:50;98599.84;;;13.56;60.36
60061;BME280;45933;51.336;12.612;2023-04-24T04:16:16;98607.72;;;13.56;60.37
60061;BME280;45933;51.336;12.612;2023-04-24T04:18:44;98601.56;;;13.57;60.17
60061;BME280;45933;51.336;12.612;2023-04-24T04:21:10;98597.09;;;13.59;60.03
60061;BME280;45933;51.336;12.612;2023-04-24T04:23:35;98616.34;;;13.58;60.22
60061;BME280;45933;51.336;12.612;2023-04-24T04:26:01;98605.97;;;13.55;60.16
60061;BME280;45933;51.336;12.612;2023-04-24T04:28:27;98601.63;;;13.55;60.15
60061;BME280;45933;51.336;12.612;2023-04-24T04:30:52;98603.25;;;13.58;60.20
60061;BME280;45933;51.336;12.612;2023-04-24T04:33:21;98597.09;;;13.59;60.10
60061;BME280;45933;51.336;12.612;2023-04-24T04:35:47;98599.84;;;13.56;60.14
60061;BME280;45933;51.336;12.612;2023-04-24T04:38:14;98594.63;;;13.56;60.02
60061;BME280;45933;51.336;12.612;2023-04-24T04:40:40;98595.72;;;13.50;60.52
60061;BME280;45933;51.336;12.612;2023-04-24T04:43:05;98597.16;;;13.57;59.98
60061;BME280;45933;51.336;12.612;2023-04-24T04:45:31;98599.91;;;13.54;60.11
60061;BME280;45933;51.336;12.612;2023-04-24T04:47:58;98596.63;;;13.49;60.69
60061;BME280;45933;51.336;12.612;2023-04-24T04:50:26;98595.72;;;13.50;60.23
60061;BME280;45933;51.336;12.612;2023-04-24T04:52:51;98595.72;;;13.50;60.49
60061;BME280;45933;51.336;12.612;2023-04-24T04:55:17;98604.44;;;13.51;60.73
60061;BME280;45933;51.336;12.612;2023-04-24T04:57:43;98601.81;;;13.51;60.65
60061;BME280;45933;51.336;12.612;2023-04-24T05:00:09;98606.13;;;13.52;60.75
60061;BME280;45933;51.336;12.612;2023-04-24T05:02:35;98619.06;;;13.55;60.33
60061;BME280;45933;51.336;12.612;2023-04-24T05:05:01;98606.78;;;13.57;60.55
60061;BME280;45933;51.336;12.612;2023-04-24T05:07:26;98611.28;;;13.53;60.84
60061;BME280;45933;51.336;12.612;2023-04-24T05:09:51;98621.50;;;13.59;60.48
60061;BME280;45933;51.336;12.612;2023-04-24T05:12:17;98615.16;;;13.65;60.91
60061;BME280;45933;51.336;12.612;2023-04-24T05:14:42;98630.75;;;13.68;60.52
60061;BME280;45933;51.336;12.612;2023-04-24T05:17:08;98624.41;;;13.74;60.30
60061;BME280;45933;51.336;12.612;2023-04-24T05:19:33;98620.03;;;13.74;60.46
60061;BME280;45933;51.336;12.612;2023-04-24T05:22:01;98621.69;;;13.77;60.19
60061;BME280;45933;51.336;12.612;2023-04-24T05:24:28;98629.56;;;13.75;60.25
60061;BME280;45933;51.336;12.612;2023-04-24T05:26:53;98624.31;;;13.77;60.31
60061;BME280;45933;51.336;12.612;2023-04-24T05:29:18;98619.06;;;13.77;60.37
60061;BME280;45933;51.336;12.612;2023-04-24T05:31:44;98631.50;;;13.72;60.87
60061;BME280;45933;51.336;12.612;2023-04-24T05:34:09;98624.31;;;13.77;60.92
60061;BME280;45933;51.336;12.612;2023-04-24T05:36:35;98632.38;;;13.71;61.22
60061;BME280;45933;51.336;12.612;2023-04-24T05:39:03;98631.75;;;13.86;60.34
60061;BME280;45933;51.336;12.612;2023-04-24T05:41:30;98633.47;;;13.87;60.21
60061;BME280;45933;51.336;12.612;2023-04-24T05:43:55;98626.72;;;13.81;60.55
60061;BME280;45933;51.336;12.612;2023-04-24T05:46:20;98632.47;;;13.90;60.51
60061;BME280;45933;51.336;12.612;2023-04-24T05:48:46;98635.50;;;14.01;60.07
60061;BME280;45933;51.336;12.612;2023-04-24T05:51:11;98642.50;;;14.00;60.18
60061;BME280;45933;51.336;12.612;2023-04-24T05:53:36;98644.22;;;14.01;60.23
60061;BME280;45933;51.336;12.612;2023-04-24T05:56:02;98637.66;;;14.11;59.75
60061;BME280;45933;51.336;12.612;2023-04-24T05:58:27;98638.19;;;14.20;60.00
60061;BME280;45933;51.336;12.612;2023-04-24T06:00:55;98645.06;;;14.22;59.72
60061;BME280;45933;51.336;12.612;2023-04-24T06:03:23;98641.28;;;14.29;59.30
60061;BME280;45933;51.336;12.612;2023-04-24T06:05:50;98637.53;;;14.35;59.18
60061;BME280;45933;51.336;12.612;2023-04-24T06:08:16;98643.81;;;14.31;59.04
60061;BME280;45933;51.336;12.612;2023-04-24T06:10:41;98648.59;;;14.42;58.69
60061;BME280;45933;51.336;12.612;2023-04-24T06:13:06;98646.03;;;14.40;59.21
60061;BME280;45933;51.336;12.612;2023-04-24T06:15:32;98640.53;;;14.46;59.02
60061;BME280;45933;51.336;12.612;2023-04-24T06:17:57;98648.72;;;14.59;58.53
60061;BME280;45933;51.336;12.612;2023-04-24T06:20:23;98658.44;;;14.57;58.60
60061;BME280;45933;51.336;12.612;2023-04-24T06:22:48;98640.78;;;14.60;58.62
60061;BME280;45933;51.336;12.612;2023-04-24T06:25:14;98641.00;;;14.75;58.60
60061;BME280;45933;51.336;12.612;2023-04-24T06:27:40;98632.00;;;14.80;57.88
60061;BME280;45933;51.336;12.612;2023-04-24T06:30:06;98651.09;;;14.84;57.36
60061;BME280;45933;51.336;12.612;2023-04-24T06:32:31;98649.88;;;14.91;57.61
60061;BME280;45933;51.336;12.612;2023-04-24T06:34:56;98648.19;;;14.90;56.96
60061;BME280;45933;51.336;12.612;2023-04-24T06:37:22;98647.34;;;14.89;56.56
60061;BME280;45933;51.336;12.612;2023-04-24T06:39:47;98657.53;;;14.96;56.81
60061;BME280;45933;51.336;12.612;2023-04-24T06:42:13;98648.75;;;14.97;56.76
60061;BME280;45933;51.336;12.612;2023-04-24T06:44:38;98641.31;;;14.87;56.57
60061;BME280;45933;51.336;12.612;2023-04-24T06:47:09;98648.06;;;14.93;56.60
60061;BME280;45933;51.336;12.612;2023-04-24T06:49:38;98645.28;;;14.96;56.49
60061;BME280;45933;51.336;12.612;2023-04-24T06:52:04;98642.94;;;14.90;56.65
60061;BME280;45933;51.336;12.612;2023-04-24T06:54:30;98640.41;;;14.88;56.61
60061;BME280;45933;51.336;12.612;2023-04-24T06:56:56;98640.09;;;14.95;56.90
60061;BME280;45933;51.336;12.612;2023-04-24T06:59:25;98646.19;;;14.95;56.41
60061;BME280;45933;51.336;12.612;2023-04-24T07:01:50;98647.56;;;15.04;56.26
60061;BME280;45933;51.336;12.612;2023-04-24T07:04:19;98646.91;;;14.99;56.56
60061;BME280;45933;51.336;12.612;2023-04-24T07:06:47;98644.78;;;15.07;56.07
60061;BME280;45933;51.336;12.612;2023-04-24T07:09:13;98646.47;;;15.08;56.06
60061;BME280;45933;51.336;12.612;2023-04-24T07:11:44;98643.94;;;15.06;56.07
60061;BME280;45933;51.336;12.612;2023-04-24T07:14:10;98645.50;;;15.10;55.97
60061;BME280;45933;51.336;12.612;2023-04-24T07:16:35;98643.72;;;15.11;55.66
60061;BME280;45933;51.336;12.612;2023-04-24T07:19:01;98648.75;;;15.15;55.80
60061;BME280;45933;51.336;12.612;2023-04-24T07:21:26;98652.00;;;15.21;55.57
60061;BME280;45933;51.336;12.612;2023-04-24T07:23:52;98641.31;;;15.25;55.16
60061;BME280;45933;51.336;12.612;2023-04-24T07:26:17;98641.13;;;15.28;55.28
60061;BME280;45933;51.336;12.612;2023-04-24T07:28:43;98639.53;;;15.26;55.00
60061;BME280;45933;51.336;12.612;2023-04-24T07:31:10;98640.72;;;15.37;54.97
60061;BME280;45933;51.336;12.612;2023-04-24T07:33:35;98644.34;;;15.35;55.26
60061;BME280;45933;51.336;12.612;2023-04-24T07:36:01;98644.19;;;15.38;54.98
60061;BME280;45933;51.336;12.612;2023-04-24T07:38:29;98630.84;;;15.42;54.85
60061;BME280;45933;51.336;12.612;2023-04-24T07:40:54;98632.69;;;15.40;54.60
60061;BME280;45933;51.336;12.612;2023-04-24T07:43:20;98637.56;;;15.48;54.39
60061;BME280;45933;51.336;12.612;2023-04-24T07:45:50;98651.31;;;15.53;53.57
60061;BME280;45933;51.336;12.612;2023-04-24T07:48:16;98638.09;;;15.55;53.96
60061;BME280;45933;51.336;12.612;2023-04-24T07:50:43;98643.13;;;15.59;53.80
60061;BME280;45933;51.336;12.612;2023-04-24T07:53:08;98635.91;;;15.64;53.37
60061;BME280;45933;51.336;12.612;2023-04-24T07:55:34;98647.97;;;15.68;53.84
60061;BME280;45933;51.336;12.612;2023-04-24T07:57:59;98636.47;;;15.71;53.14
60061;BME280;45933;51.336;12.612;2023-04-24T08:00:25;98642.59;;;15.89;53.05
60061;BME280;45933;51.336;12.612;2023-04-24T08:02:50;98641.34;;;15.96;53.41
60061;BME280;45933;51.336;12.612;2023-04-24T08:05:15;98638.63;;;15.98;51.54
60061;BME280;45933;51.336;12.612;2023-04-24T08:07:41;98644.91;;;16.12;52.03
60061;BME280;45933;51.336;12.612;2023-04-24T08:10:10;98641.91;;;16.20;51.40
60061;BME280;45933;51.336;12.612;2023-04-24T08:12:36;98651.69;;;16.34;51.56
60061;BME280;45933;51.336;12.612;2023-04-24T08:15:01;98658.06;;;16.30;51.26
60061;BME280;45933;51.336;12.612;2023-04-24T08:17:27;98659.84;;;16.45;51.04
60061;BME280;45933;51.336;12.612;2023-04-24T08:19:52;98656.94;;;16.51;51.13
60061;BME280;45933;51.336;12.612;2023-04-24T08:22:24;98667.38;;;16.53;50.67
60061;BME280;45933;51.336;12.612;2023-04-24T08:24:49;98651.16;;;16.60;50.24
60061;BME280;45933;51.336;12.612;2023-04-24T08:27:15;98659.75;;;16.64;50.46
60061;BME280;45933;51.336;12.612;2023-04-24T08:29:40;98652.38;;;16.70;49.86
60061;BME280;45933;51.336;12.612;2023-04-24T08:32:05;98655.41;;;16.80;49.67
60061;BME280;45933;51.336;12.612;2023-04-24T08:34:31;98644.41;;;16.89;49.73
60061;BME280;45933;51.336;12.612;2023-04-24T08:36:56;98652.38;;;16.88;49.43
60061;BME280;45933;51.336;12.612;2023-04-24T08:39:22;98666.06;;;16.94;49.46
60061;BME280;45933;51.336;12.612;2023-04-24T08:41:48;98647.19;;;17.02;49.56
60061;BME280;45933;51.336;12.612;2023-04-24T08:44:13;98657.56;;;17.05;49.34
60061;BME280;45933;51.336;12.612;2023-04-24T08:46:43;98652.56;;;17.16;49.35
60061;BME280;45933;51.336;12.612;2023-04-24T08:49:09;98656.22;;;17.30;49.71
60061;BME280;45933;51.336;12.612;2023-04-24T08:51:36;98651.88;;;17.44;49.36
60061;BME280;45933;51.336;12.612;2023-04-24T08:54:02;98665.03;;;17.60;48.43
60061;BME280;45933;51.336;12.612;2023-04-24T08:56:29;98645.09;;;17.56;47.53
60061;BME280;45933;51.336;12.612;2023-04-24T08:58:56;98648.88;;;17.50;47.46
60061;BME280;45933;51.336;12.612;2023-04-24T09:01:23;98653.38;;;17.64;47.25
60061;BME280;45933;51.336;12.612;2023-04-24T09:03:49;98660.53;;;17.62;47.52
60061;BME280;45933;51.336;12.612;2023-04-24T09:06:18;98667.50;;;17.63;47.64
60061;BME280;45933;51.336;12.612;2023-04-24T09:08:45;98661.75;;;17.57;47.90
60061;BME280;45933;51.336;12.612;2023-04-24T09:11:11;98665.38;;;17.54;48.14
60061;BME280;45933;51.336;12.612;2023-04-24T09:13:37;98676.25;;;17.48;46.82
60061;BME280;45933;51.336;12.612;2023-04-24T09:16:02;98677.56;;;17.41;46.18
60061;BME280;45933;51.336;12.612;2023-04-24T09:18:28;98669.91;;;17.36;45.50
60061;BME280;45933;51.336;12.612;2023-04-24T09:20:58;98668.03;;;17.38;45.58
60061;BME280;45933;51.336;12.612;2023-04-24T09:23:26;98665.63;;;17.34;44.86
60061;BME280;45933;51.336;12.612;2023-04-24T09:25:54;98663.84;;;17.34;44.47
60061;BME280;45933;51.336;12.612;2023-04-24T09:28:25;98671.00;;;17.32;44.60
60061;BME280;45933;51.336;12.612;2023-04-24T09:31:15;98665.72;;;17.48;45.05
60061;BME280;45933;51.336;12.612;2023-04-24T09:33:57;98659.72;;;17.46;45.00
60061;BME280;45933;51.336;12.612;2023-04-24T09:39:06;98667.28;;;17.36;44.88
60061;BME280;45933;51.336;12.612;2023-04-24T09:41:50;98668.47;;;17.46;44.91
60061;BME280;45933;51.336;12.612;2023-04-24T09:44:18;98673.13;;;17.41;44.73
60061;BME280;45933;51.336;12.612;2023-04-24T09:46:52;98673.38;;;17.37;44.85
60061;BME280;45933;51.336;12.612;2023-04-24T09:49:26;98673.97;;;17.42;45.04
60061;BME280;45933;51.336;12.612;2023-04-24T09:52:02;98673.72;;;17.46;44.87
60061;BME280;45933;51.336;12.612;2023-04-24T09:54:28;98668.44;;;17.62;45.71
60061;BME280;45933;51.336;12.612;2023-04-24T09:56:54;98663.56;;;17.70;44.83
60061;BME280;45933;51.336;12.612;2023-04-24T09:59:20;98655.28;;;17.78;45.01
60061;BME280;45933;51.336;12.612;2023-04-24T10:01:46;98658.66;;;17.80;44.78
60061;BME280;45933;51.336;12.612;2023-04-24T10:04:21;98658.66;;;17.80;44.69
60061;BME280;45933;51.336;12.612;2023-04-24T10:06:48;98662.97;;;17.81;44.83
60061;BME280;45933;51.336;12.612;2023-04-24T10:09:15;98663.44;;;17.73;44.66
60061;BME280;45933;51.336;12.612;2023-04-24T10:11:44;98669.94;;;17.66;45.26
60061;BME280;45933;51.336;12.612;2023-04-24T10:14:15;98678.31;;;17.74;44.77
60061;BME280;45933;51.336;12.612;2023-04-24T10:16:42;98671.47;;;17.70;44.91
60061;BME280;45933;51.336;12.612;2023-04-24T10:19:08;98666.81;;;17.60;45.41
60061;BME280;45933;51.336;12.612;2023-04-24T10:21:34;98667.88;;;17.73;45.84
60061;BME280;45933;51.336;12.612;2023-04-24T10:24:00;98680.56;;;17.65;46.07
60061;BME280;45933;51.336;12.612;2023-04-24T10:26:28;98672.19;;;17.74;46.00
60061;BME280;45933;51.336;12.612;2023-04-24T10:28:57;98676.34;;;17.78;46.10
60061;BME280;45933;51.336;12.612;2023-04-24T10:31:23;98678.16;;;17.77;45.21
60061;BME280;45933;51.336;12.612;2023-04-24T10:33:49;98683.66;;;17.89;45.17
60061;BME280;45933;51.336;12.612;2023-04-24T10:36:17;98676.22;;;17.95;44.60
60061;BME280;45933;51.336;12.612;2023-04-24T10:38:45;98690.09;;;17.99;42.99
60061;BME280;45933;51.336;12.612;2023-04-24T10:41:12;98690.00;;;18.00;43.24
60061;BME280;45933;51.336;12.612;2023-04-24T10:43:45;98698.16;;;17.96;42.26
60061;BME280;45933;51.336;12.612;2023-04-24T10:46:17;98696.16;;;17.85;41.86
60061;BME280;45933;51.336;12.612;2023-04-24T10:48:52;98686.34;;;17.87;42.69
60061;BME280;45933;51.336;12.612;2023-04-24T10:51:22;98693.00;;;17.94;41.27
60061;BME280;45933;51.336;12.612;2023-04-24T10:53:49;98696.63;;;17.92;40.09
60061;BME280;45933;51.336;12.612;2023-04-24T10:56:15;98692.78;;;17.97;38.89
60061;BME280;45933;51.336;12.612;2023-04-24T10:58:43;98696.53;;;18.09;38.83
60061;BME280;45933;51.336;12.612;2023-04-24T11:01:26;98693.38;;;18.02;36.78
60061;BME280;45933;51.336;12.612;2023-04-24T11:03:57;98699.03;;;18.26;37.94
60061;BME280;45933;51.336;12.612;2023-04-24T11:06:30;98703.50;;;18.40;36.31
60061;BME280;45933;51.336;12.612;2023-04-24T11:09:03;98725.38;;;18.57;36.61
60061;BME280;45933;51.336;12.612;2023-04-24T11:11:29;98702.75;;;18.52;36.47
60061;BME280;45933;51.336;12.612;2023-04-24T11:16:26;98712.31;;;18.39;35.79
60061;BME280;45933;51.336;12.612;2023-04-24T11:21:43;98692.19;;;18.52;34.92
60061;BME280;45933;51.336;12.612;2023-04-24T11:27:18;98709.41;;;18.74;35.06
60061;BME280;45933;51.336;12.612;2023-04-24T11:29:42;98715.25;;;18.79;33.63
60061;BME280;45933;51.336;12.612;2023-04-24T11:34:52;98715.34;;;19.06;34.15
60061;BME280;45933;51.336;12.612;2023-04-24T11:37:18;98718.72;;;19.37;33.79
60061;BME280;45933;51.336;12.612;2023-04-24T11:39:43;98715.09;;;19.52;32.74
60061;BME280;45933;51.336;12.612;2023-04-24T11:42:09;98730.09;;;19.66;32.50
60061;BME280;45933;51.336;12.612;2023-04-24T11:44:35;98716.13;;;19.91;32.53
60061;BME280;45933;51.336;12.612;2023-04-24T11:47:04;98716.72;;;20.08;32.67
60061;BME280;45933;51.336;12.612;2023-04-24T11:49:29;98732.22;;;20.27;32.01
60061;BME280;45933;51.336;12.612;2023-04-24T11:51:55;98718.16;;;20.40;30.95
60061;BME280;45933;51.336;12.612;2023-04-24T11:54:20;98720.34;;;20.47;30.92
60061;BME280;45933;51.336;12.612;2023-04-24T11:56:47;98716.88;;;20.72;29.22
60061;BME280;45933;51.336;12.612;2023-04-24T11:59:12;98728.31;;;20.85;30.52
60061;BME280;45933;51.336;12.612;2023-04-24T12:01:47;98731.91;;;20.84;28.96
60061;BME280;45933;51.336;12.612;2023-04-24T12:04:14;98722.69;;;20.90;29.85
60061;BME280;45933;51.336;12.612;2023-04-24T12:06:58;98725.84;;;20.82;29.92
60061;BME280;45933;51.336;12.612;2023-04-24T12:09:24;98721.63;;;20.93;29.78
60061;BME280;45933;51.336;12.612;2023-04-24T12:11:54;98723.53;;;20.91;29.08
60061;BME280;45933;51.336;12.612;2023-04-24T12:14:23;98734.34;;;21.00;30.17
60061;BME280;45933;51.336;12.612;2023-04-24T12:16:51;98725.31;;;21.15;29.72
60061;BME280;45933;51.336;12.612;2023-04-24T12:19:23;98719.16;;;21.28;29.52
60061;BME280;45933;51.336;12.612;2023-04-24T12:22:02;98727.09;;;21.28;29.23
60061;BME280;45933;51.336;12.612;2023-04-24T12:24:28;98725.94;;;21.19;29.15
60061;BME280;45933;51.336;12.612;2023-04-24T12:26:54;98726.78;;;21.20;29.02
60061;BME280;45933;51.336;12.612;2023-04-24T12:29:20;98718.84;;;21.07;28.66
60061;BME280;45933;51.336;12.612;2023-04-24T12:31:46;98721.81;;;21.02;29.15
60061;BME280;45933;51.336;12.612;2023-04-24T12:34:21;98724.78;;;20.98;29.07
60061;BME280;45933;51.336;12.612;2023-04-24T12:36:48;98734.47;;;20.73;29.15
60061;BME280;45933;51.336;12.612;2023-04-24T12:39:20;98725.97;;;20.81;29.58
60061;BME280;45933;51.336;12.612;2023-04-24T12:41:58;98730.13;;;20.72;29.38
60061;BME280;45933;51.336;12.612;2023-04-24T12:44:33;98739.09;;;20.82;28.95
60061;BME280;45933;51.336;12.612;2023-04-24T12:47:00;98731.47;;;20.91;29.48
60061;BME280;45933;51.336;12.612;2023-04-24T12:49:26;98723.00;;;20.98;29.42
60061;BME280;45933;51.336;12.612;2023-04-24T12:51:52;98714.72;;;21.15;29.00
60061;BME280;45933;51.336;12.612;2023-04-24T12:54:18;98733.16;;;21.17;30.47
60061;BME280;45933;51.336;12.612;2023-04-24T12:56:43;98717.47;;;21.14;29.78
60061;BME280;45933;51.336;12.612;2023-04-24T12:59:08;98719.91;;;21.17;30.75
60061;BME280;45933;51.336;12.612;2023-04-24T13:01:34;98720.66;;;21.06;30.01